Time;durP1;ratioP1;P1;durP2;ratioP2;P2;SDS_P1;SDS_P2;PMS_P1;PMS_P2;Temp;Humidity;BMP_temperature;BMP_pressure;BME280_temperature;BME280_humidity;BME280_pressure;Samples;Min_cycle;Max_cycle;Signal;HPM_P1;HPM_P2
2023/03/01 00:01:30;;;;;;;24.80;13.70;;;-2.80;99.90;;;;;;5053043;28;20658;-83
2023/03/01 00:03:57;;;;;;;31.43;11.07;;;-2.80;99.90;;;;;;5034791;28;20340;-84
2023/03/01 00:06:23;;;;;;;19.73;10.63;;;-2.30;99.90;;;;;;5035153;28;20925;-84
2023/03/01 00:08:49;;;;;;;26.37;10.57;;;-1.30;99.90;;;;;;5034931;28;20174;-85
2023/03/01 00:11:16;;;;;;;27.97;9.40;;;-2.80;99.90;;;;;;5035408;28;20182;-85
2023/03/01 00:13:43;;;;;;;20.87;10.10;;;-2.80;99.90;;;;;;5035063;28;20227;-84
2023/03/01 00:16:13;;;;;;;20.77;11.17;;;-2.80;99.90;;;;;;5052619;28;20708;-84
2023/03/01 00:18:39;;;;;;;18.90;8.60;;;-2.80;99.90;;;;;;5054095;28;20174;-84
2023/03/01 00:21:05;;;;;;;15.83;8.37;;;-2.30;99.90;;;;;;5056433;28;20640;-84
2023/03/01 00:23:33;;;;;;;15.73;8.97;;;-2.50;99.90;;;;;;5039051;28;20172;-84
2023/03/01 00:25:59;;;;;;;18.43;7.93;;;-2.40;99.90;;;;;;5056705;28;20172;-85
2023/03/01 00:28:24;;;;;;;20.70;9.40;;;-2.00;99.90;;;;;;5041692;28;20695;-85
2023/03/01 00:30:50;;;;;;;15.53;8.00;;;-2.30;99.90;;;;;;5022555;28;20527;-84
2023/03/01 00:33:16;;;;;;;15.17;6.63;;;-2.60;99.90;;;;;;5038866;28;20660;-85
2023/03/01 00:35:41;;;;;;;38.10;10.50;;;-2.60;99.90;;;;;;5022261;28;20272;-84
2023/03/01 00:38:07;;;;;;;19.17;9.00;;;-2.60;99.90;;;;;;5038575;28;20183;-85
2023/03/01 00:40:35;;;;;;;19.10;8.43;;;-1.50;99.90;;;;;;5038770;28;20176;-85
2023/03/01 00:43:01;;;;;;;22.20;10.40;;;-1.60;99.90;;;;;;5038464;28;20186;-84
2023/03/01 00:45:27;;;;;;;14.23;6.73;;;-2.30;99.90;;;;;;5056551;28;20179;-85
2023/03/01 00:47:54;;;;;;;17.43;5.87;;;-2.50;99.90;;;;;;5056262;28;20559;-85
2023/03/01 00:50:20;;;;;;;19.13;9.73;;;-2.30;99.90;;;;;;5056465;28;20172;-84
2023/03/01 00:52:46;;;;;;;16.93;6.77;;;-2.50;99.90;;;;;;5038421;28;20696;-83
2023/03/01 00:55:12;;;;;;;11.30;7.57;;;-1.90;99.90;;;;;;5056157;28;20184;-84
2023/03/01 00:57:38;;;;;;;13.27;7.33;;;-2.20;99.90;;;;;;5056086;28;20206;-83
2023/03/01 01:00:09;;;;;;;9.50;7.17;;;-2.40;99.90;;;;;;5055512;28;20183;-84
2023/03/01 01:02:35;;;;;;;10.20;5.90;;;-2.40;99.90;;;;;;5055901;28;20269;-84
2023/03/01 01:05:01;;;;;;;11.67;5.57;;;-1.80;99.90;;;;;;5055943;28;20172;-83
2023/03/01 01:07:26;;;;;;;18.60;6.73;;;-2.20;99.90;;;;;;5038436;28;20183;-84
2023/03/01 01:09:52;;;;;;;25.27;6.97;;;-2.20;99.90;;;;;;5038282;28;20185;-83
2023/03/01 01:12:18;;;;;;;11.80;7.57;;;-1.70;99.90;;;;;;5037737;28;20269;-83
2023/03/01 01:14:43;;;;;;;14.73;5.37;;;-2.20;99.90;;;;;;5055311;28;20169;-83
2023/03/01 01:17:09;;;;;;;10.33;7.20;;;-2.10;99.90;;;;;;5037367;28;20183;-83
2023/03/01 01:19:35;;;;;;;14.73;8.40;;;-2.30;99.90;;;;;;5038001;28;20617;-83
2023/03/01 01:22:01;;;;;;;18.77;9.07;;;-1.90;99.90;;;;;;5037664;28;20187;-83
2023/03/01 01:24:26;;;;;;;12.17;6.67;;;-2.50;99.90;;;;;;5038145;28;20187;-83
2023/03/01 01:26:52;;;;;;;11.90;8.30;;;-2.70;99.90;;;;;;5037712;28;20645;-83
2023/03/01 01:29:18;;;;;;;19.30;9.73;;;-1.90;99.90;;;;;;5037584;28;20183;-83
2023/03/01 01:31:44;;;;;;;13.57;8.23;;;-2.60;99.90;;;;;;5054620;28;20184;-83
2023/03/01 01:34:15;;;;;;;11.37;6.27;;;-1.60;99.90;;;;;;5037546;28;20648;-82
2023/03/01 01:36:40;;;;;;;18.20;6.67;;;-2.80;99.90;;;;;;5055547;28;20172;-83
2023/03/01 01:39:07;;;;;;;18.97;8.13;;;-2.70;99.90;;;;;;5037619;28;20530;-83
2023/03/01 01:41:33;;;;;;;12.07;6.57;;;-2.70;99.90;;;;;;5055302;28;20181;-83
2023/03/01 01:44:26;;;;;;;8.97;5.60;;;-2.80;99.90;;;;;;5055071;28;20627;-84
2023/03/01 01:47:01;;;;;;;8.27;5.53;;;-2.80;99.90;;;;;;5055713;28;20175;-84
2023/03/01 01:49:39;;;;;;;30.53;6.70;;;-2.80;99.90;;;;;;5037553;28;20188;-83
2023/03/01 01:52:27;;;;;;;30.73;8.90;;;-2.90;99.90;;;;;;5037108;28;20674;-84
2023/03/01 01:55:05;;;;;;;21.73;9.10;;;-2.90;99.90;;;;;;5038250;28;20178;-83
2023/03/01 01:57:39;;;;;;;8.90;7.23;;;-2.40;99.90;;;;;;5038267;28;20174;-83
2023/03/01 02:00:09;;;;;;;17.37;6.87;;;-3.00;99.90;;;;;;5055490;28;20186;-85
2023/03/01 02:02:36;;;;;;;6.00;5.33;;;-3.10;99.90;;;;;;5054942;28;20178;-84
2023/03/01 02:05:29;;;;;;;16.60;7.07;;;-3.10;99.90;;;;;;5054783;28;20167;-84
2023/03/01 02:07:56;;;;;;;11.87;6.63;;;-2.90;99.90;;;;;;5027923;28;20191;-83
2023/03/01 02:10:24;;;;;;;14.67;5.07;;;-3.20;99.90;;;;;;5037365;28;20270;-85
2023/03/01 02:12:51;;;;;;;7.60;6.43;;;-3.40;99.90;;;;;;5054813;28;20208;-84
2023/03/01 02:15:17;;;;;;;6.73;6.03;;;-3.50;99.90;;;;;;5036979;28;20175;-84
2023/03/01 02:17:43;;;;;;;7.37;5.30;;;-3.50;99.90;;;;;;5020315;28;20190;-83
2023/03/01 02:20:46;;;;;;;10.00;6.50;;;-3.50;99.90;;;;;;5054635;28;20174;-83
2023/03/01 02:23:12;;;;;;;7.47;4.83;;;-3.50;99.90;;;;;;5036521;28;20210;-83
2023/03/01 02:26:17;;;;;;;5.57;4.53;;;-3.50;99.90;;;;;;5020174;28;20227;-83
2023/03/01 02:28:44;;;;;;;9.37;5.60;;;-3.30;99.90;;;;;;5051342;28;20191;-83
2023/03/01 02:33:58;;;;;;;10.23;4.43;;;-3.20;99.90;;;;;;5054518;28;20630;-83
2023/03/01 02:36:30;;;;;;;9.20;5.93;;;-3.20;99.90;;;;;;5036469;28;20700;-84
2023/03/01 02:39:02;;;;;;;11.43;6.30;;;-3.20;99.90;;;;;;5054308;28;20224;-83
2023/03/01 02:41:30;;;;;;;17.47;7.77;;;-1.70;99.90;;;;;;5054255;28;20179;-84
2023/03/01 02:43:56;;;;;;;19.07;7.87;;;-3.10;99.90;;;;;;5035334;28;20183;-83
2023/03/01 02:46:25;;;;;;;20.67;7.70;;;-3.10;99.90;;;;;;5036434;28;20182;-84
2023/03/01 02:48:56;;;;;;;9.83;7.80;;;-3.20;99.90;;;;;;5054095;28;20170;-84
2023/03/01 02:51:25;;;;;;;9.10;6.23;;;-3.20;99.90;;;;;;5053749;28;20204;-82
2023/03/01 02:54:04;;;;;;;8.53;4.70;;;-3.30;99.90;;;;;;5054108;28;20297;-82
2023/03/01 02:56:30;;;;;;;10.10;7.10;;;-3.20;99.90;;;;;;5053762;28;20525;-82
2023/03/01 02:59:00;;;;;;;7.73;6.43;;;-3.20;99.90;;;;;;5053837;28;20177;-82
2023/03/01 03:01:36;;;;;;;11.57;6.33;;;-3.10;99.90;;;;;;5035653;28;20242;-83
2023/03/01 03:04:04;;;;;;;10.73;6.10;;;-3.10;99.90;;;;;;5054241;28;20213;-83
2023/03/01 03:06:30;;;;;;;10.60;5.40;;;-2.30;99.90;;;;;;5035976;28;20209;-83
2023/03/01 03:08:56;;;;;;;7.07;4.47;;;-2.00;99.90;;;;;;5053743;28;20204;-84
2023/03/01 03:11:21;;;;;;;8.50;5.10;;;-3.00;99.90;;;;;;5053607;28;20197;-82
2023/03/01 03:13:47;;;;;;;7.80;6.23;;;-2.80;99.90;;;;;;5019541;28;20262;-83
2023/03/01 03:16:14;;;;;;;7.63;5.30;;;-2.90;99.90;;;;;;5053364;28;20179;-85
2023/03/01 03:18:40;;;;;;;10.47;7.47;;;-1.80;99.90;;;;;;5036174;28;20178;-83
2023/03/01 03:21:10;;;;;;;15.00;8.57;;;-3.10;99.90;;;;;;5036023;28;20171;-83
2023/03/01 03:23:36;;;;;;;7.63;5.00;;;-2.10;99.90;;;;;;5035602;28;20179;-83
2023/03/01 03:26:04;;;;;;;13.37;5.67;;;-2.90;99.90;;;;;;5053482;28;20226;-83
2023/03/01 03:28:30;;;;;;;12.07;7.57;;;-3.20;99.90;;;;;;5053072;28;20270;-84
2023/03/01 03:30:56;;;;;;;8.07;6.47;;;-3.20;99.90;;;;;;5053508;28;20182;-83
2023/03/01 03:33:22;;;;;;;6.00;5.00;;;-3.20;99.90;;;;;;5035337;28;20209;-83
2023/03/01 03:35:49;;;;;;;8.90;6.27;;;-3.30;99.90;;;;;;5035850;28;20183;-83
2023/03/01 03:38:19;;;;;;;10.77;5.57;;;-3.20;99.90;;;;;;5053380;28;20236;-83
2023/03/01 03:40:47;;;;;;;21.77;8.03;;;-2.50;99.90;;;;;;5053271;28;20177;-84
2023/03/01 03:43:17;;;;;;;18.13;8.03;;;-3.30;99.90;;;;;;5035023;28;20194;-83
2023/03/01 03:45:47;;;;;;;10.60;6.40;;;-3.40;99.90;;;;;;5053382;28;20200;-83
2023/03/01 03:48:13;;;;;;;9.60;6.10;;;-2.90;99.90;;;;;;5035472;28;20231;-83
2023/03/01 03:50:39;;;;;;;17.33;6.63;;;-2.60;99.90;;;;;;5053028;28;20629;-83
2023/03/01 03:53:10;;;;;;;12.00;7.23;;;-2.10;99.90;;;;;;5035220;28;20203;-84
2023/03/01 03:55:38;;;;;;;20.70;7.37;;;-3.30;99.90;;;;;;5052676;28;20176;-84
2023/03/01 03:58:09;;;;;;;11.70;7.60;;;-3.30;99.90;;;;;;5053273;28;20168;-84
2023/03/01 04:00:38;;;;;;;7.20;5.77;;;-3.30;99.90;;;;;;5035557;28;20234;-83
2023/03/01 04:03:04;;;;;;;18.27;7.13;;;-3.20;99.90;;;;;;5053340;28;20173;-84
2023/03/01 04:05:30;;;;;;;4.23;3.87;;;-3.20;99.90;;;;;;5034796;28;20169;-83
2023/03/01 04:08:02;;;;;;;12.00;6.23;;;-1.40;99.90;;;;;;5018549;28;20236;-83
2023/03/01 04:10:35;;;;;;;12.30;5.83;;;-1.70;99.90;;;;;;5034754;28;20188;-84
2023/03/01 04:13:00;;;;;;;11.03;6.03;;;-3.30;99.90;;;;;;5053058;28;20293;-83
2023/03/01 04:15:26;;;;;;;15.50;7.27;;;-2.90;99.90;;;;;;5035073;28;20706;-82
2023/03/01 04:17:54;;;;;;;11.00;5.93;;;-3.30;99.90;;;;;;5052816;28;20203;-84
2023/03/01 04:20:25;;;;;;;10.63;7.23;;;-3.30;99.90;;;;;;5035024;28;20188;-83
2023/03/01 04:23:20;;;;;;;9.73;6.00;;;-2.10;99.90;;;;;;5052652;28;20173;-83
2023/03/01 04:25:45;;;;;;;9.60;5.83;;;-3.20;99.90;;;;;;5052655;28;20687;-83
2023/03/01 04:28:11;;;;;;;10.03;4.53;;;-3.30;99.90;;;;;;5053399;28;20216;-83
2023/03/01 04:30:38;;;;;;;14.03;5.77;;;-3.30;99.90;;;;;;5018135;28;20182;-84
2023/03/01 04:33:06;;;;;;;12.20;6.87;;;-3.20;99.90;;;;;;5034880;28;20212;-83
2023/03/01 04:35:32;;;;;;;15.67;7.70;;;-3.20;99.90;;;;;;5052185;28;20620;-82
2023/03/01 04:37:58;;;;;;;8.20;6.00;;;-2.30;99.90;;;;;;5034883;28;20582;-84
2023/03/01 04:40:24;;;;;;;11.47;7.17;;;-3.20;99.90;;;;;;5034783;28;20179;-87
2023/03/01 04:42:50;;;;;;;14.37;8.17;;;-3.10;99.90;;;;;;5034947;28;20187;-83
2023/03/01 04:45:16;;;;;;;27.87;8.70;;;-2.10;99.90;;;;;;5052615;28;20171;-83
2023/03/01 04:47:44;;;;;;;13.60;8.43;;;-3.20;99.90;;;;;;5034502;28;20249;-83
2023/03/01 04:50:12;;;;;;;10.40;8.63;;;-3.10;99.90;;;;;;5034551;28;20226;-83
2023/03/01 04:52:38;;;;;;;16.10;8.37;;;-3.10;99.90;;;;;;5033989;28;20218;-84
2023/03/01 04:55:04;;;;;;;12.87;7.23;;;-3.10;99.90;;;;;;5052425;28;20187;-84
2023/03/01 04:57:30;;;;;;;17.70;8.17;;;-3.20;99.90;;;;;;5034315;28;20183;-85
2023/03/01 04:59:56;;;;;;;18.90;8.27;;;-3.20;99.90;;;;;;5034338;28;20629;-82
2023/03/01 05:02:22;;;;;;;10.77;5.40;;;-3.10;99.90;;;;;;5027749;28;20268;-87
2023/03/01 05:04:48;;;;;;;8.73;5.77;;;-3.20;99.90;;;;;;5014527;28;20684;-85
2023/03/01 05:07:19;;;;;;;10.07;6.93;;;-3.30;99.90;;;;;;5016248;28;20228;-83
2023/03/01 05:09:48;;;;;;;11.40;6.50;;;-3.20;99.90;;;;;;5018368;28;20179;-86
2023/03/01 05:12:14;;;;;;;9.13;6.60;;;-2.30;99.90;;;;;;5045374;28;20216;-85
2023/03/01 05:14:41;;;;;;;14.60;7.73;;;-3.10;99.90;;;;;;5016798;28;20180;-85
2023/03/01 05:17:07;;;;;;;22.67;8.50;;;-3.00;99.90;;;;;;5002153;28;20245;-86
2023/03/01 05:19:33;;;;;;;17.83;6.60;;;-3.10;99.90;;;;;;5018457;28;20275;-85
2023/03/01 05:22:01;;;;;;;12.37;7.73;;;-3.20;99.90;;;;;;5017625;28;20185;-85
2023/03/01 05:24:29;;;;;;;5.77;4.50;;;-3.20;99.90;;;;;;5037762;28;20182;-85
2023/03/01 05:26:55;;;;;;;7.53;6.33;;;-2.70;99.90;;;;;;5006887;28;20217;-85
2023/03/01 05:29:24;;;;;;;10.73;7.90;;;-3.20;99.90;;;;;;5001067;28;20647;-86
2023/03/01 05:32:01;;;;;;;22.47;10.17;;;-2.20;99.90;;;;;;4989861;28;20180;-85
2023/03/01 05:34:32;;;;;;;24.40;10.17;;;-2.30;99.90;;;;;;5012134;28;20184;-85
2023/03/01 05:36:58;;;;;;;23.83;10.50;;;-2.70;99.90;;;;;;5010377;28;20680;-86
2023/03/01 05:39:26;;;;;;;11.13;7.07;;;-3.20;99.90;;;;;;5015543;28;20263;-85
2023/03/01 05:42:00;;;;;;;24.40;7.70;;;-3.10;99.90;;;;;;5016231;28;20304;-86
2023/03/01 05:44:28;;;;;;;11.77;8.00;;;-3.10;99.90;;;;;;5011766;28;20213;-87
2023/03/01 05:46:54;;;;;;;12.87;5.87;;;-3.10;99.90;;;;;;4998096;28;20267;-87
2023/03/01 05:49:20;;;;;;;17.97;5.83;;;-1.00;99.90;;;;;;5032445;28;20267;-85
2023/03/01 05:51:50;;;;;;;23.47;9.37;;;-1.90;99.90;;;;;;5024704;28;20212;-85
2023/03/01 05:54:17;;;;;;;11.27;5.90;;;-2.90;99.90;;;;;;5032640;28;20199;-85
2023/03/01 05:56:43;;;;;;;22.23;7.20;;;-2.90;99.90;;;;;;5015899;28;20226;-84
2023/03/01 05:59:09;;;;;;;8.07;7.27;;;-2.80;99.90;;;;;;5015581;28;20195;-84
2023/03/01 06:01:35;;;;;;;14.33;7.70;;;-2.80;99.90;;;;;;5015456;28;20244;-85
2023/03/01 06:04:02;;;;;;;13.43;7.67;;;-2.70;99.90;;;;;;5015385;28;20197;-87
2023/03/01 06:06:27;;;;;;;17.40;9.27;;;-2.70;99.90;;;;;;5034351;28;20523;-84
2023/03/01 06:08:53;;;;;;;9.67;6.37;;;-2.60;99.90;;;;;;5016997;28;20180;-84
2023/03/01 06:11:20;;;;;;;36.67;10.30;;;-1.60;99.90;;;;;;5034534;28;20208;-84
2023/03/01 06:13:46;;;;;;;23.47;11.07;;;-2.40;99.90;;;;;;5016726;28;20305;-83
2023/03/01 06:16:12;;;;;;;14.80;8.13;;;-2.10;99.90;;;;;;5016756;28;20267;-83
2023/03/01 06:18:38;;;;;;;14.80;7.93;;;-2.30;99.90;;;;;;5000387;28;20234;-83
2023/03/01 06:21:06;;;;;;;11.53;6.50;;;-2.10;99.90;;;;;;5034481;28;20173;-83
2023/03/01 06:23:32;;;;;;;15.60;8.43;;;-2.00;99.90;;;;;;5016404;28;20180;-85
2023/03/01 06:25:58;;;;;;;12.93;8.70;;;-1.00;99.90;;;;;;5034498;28;20175;-83
2023/03/01 06:28:24;;;;;;;9.03;5.80;;;-1.80;99.90;;;;;;5034435;28;20246;-84
2023/03/01 06:30:51;;;;;;;30.53;7.97;;;-1.70;99.90;;;;;;5016779;28;20182;-83
2023/03/01 06:33:19;;;;;;;17.93;10.63;;;-1.60;99.90;;;;;;5016343;28;20233;-83
2023/03/01 06:35:46;;;;;;;9.17;7.80;;;-1.60;99.90;;;;;;5034311;28;20167;-84
2023/03/01 06:38:14;;;;;;;15.63;8.00;;;-0.50;99.90;;;;;;5034039;28;20182;-83
2023/03/01 06:40:40;;;;;;;19.70;6.23;;;-1.40;99.90;;;;;;5016709;28;20180;-83
2023/03/01 06:43:07;;;;;;;13.00;6.43;;;-1.30;99.90;;;;;;5016259;28;20203;-82
2023/03/01 06:45:33;;;;;;;11.63;6.83;;;-1.10;99.90;;;;;;5016508;28;20187;-83
2023/03/01 06:48:04;;;;;;;15.67;6.83;;;-1.00;99.90;;;;;;5034017;28;20640;-81
2023/03/01 06:50:30;;;;;;;6.47;3.83;;;-0.90;99.90;;;;;;5034160;28;20176;-82
2023/03/01 06:52:56;;;;;;;16.60;7.63;;;-0.70;99.90;;;;;;5033913;28;20197;-83
2023/03/01 06:55:22;;;;;;;11.43;5.20;;;0.20;99.90;;;;;;5033810;28;20173;-82
2023/03/01 06:57:48;;;;;;;13.03;7.87;;;-0.70;99.90;;;;;;5034145;28;20188;-82
2023/03/01 07:00:14;;;;;;;13.73;6.43;;;-0.70;99.90;;;;;;5033910;28;20285;-81
2023/03/01 07:02:40;;;;;;;21.33;10.60;;;-0.60;99.90;;;;;;5033977;28;20196;-82
2023/03/01 07:05:07;;;;;;;23.60;9.30;;;-0.60;99.90;;;;;;5033988;28;20643;-82
2023/03/01 07:07:33;;;;;;;16.33;7.87;;;-0.50;99.90;;;;;;5015842;28;20182;-82
2023/03/01 07:09:58;;;;;;;11.60;6.20;;;-0.20;99.90;;;;;;5016008;28;20206;-82
2023/03/01 07:12:24;;;;;;;11.37;6.53;;;-0.40;99.90;;;;;;5033148;28;20239;-83
2023/03/01 07:14:49;;;;;;;15.07;6.57;;;-0.30;99.90;;;;;;4999974;28;20227;-83
2023/03/01 07:17:16;;;;;;;11.97;5.10;;;-0.20;99.90;;;;;;4999535;28;20711;-82
2023/03/01 07:19:42;;;;;;;9.87;6.23;;;0.00;99.90;;;;;;4999371;28;20180;-83
2023/03/01 07:22:09;;;;;;;14.50;5.50;;;0.00;99.90;;;;;;4999533;28;20585;-83
2023/03/01 07:24:34;;;;;;;10.60;6.07;;;0.20;99.90;;;;;;5033209;28;20318;-83
2023/03/01 07:27:00;;;;;;;11.80;6.17;;;0.20;99.90;;;;;;4999259;28;20184;-83
2023/03/01 07:29:26;;;;;;;17.17;6.80;;;0.30;99.90;;;;;;5014950;28;20279;-83
2023/03/01 07:31:51;;;;;;;10.77;5.97;;;0.30;99.90;;;;;;5015664;28;20180;-83
2023/03/01 07:34:17;;;;;;;17.00;5.90;;;0.40;99.90;;;;;;5013756;28;20612;-82
2023/03/01 07:36:45;;;;;;;20.80;5.80;;;0.50;99.90;;;;;;5032085;28;20186;-83
2023/03/01 07:39:11;;;;;;;8.23;5.13;;;0.60;99.90;;;;;;5014355;28;20625;-82
2023/03/01 07:41:37;;;;;;;15.33;6.70;;;0.60;99.90;;;;;;5032214;28;20235;-82
2023/03/01 07:44:02;;;;;;;18.43;6.70;;;0.60;99.90;;;;;;5031685;28;20185;-83
2023/03/01 07:46:28;;;;;;;8.73;5.87;;;0.70;99.90;;;;;;5014361;28;20185;-82
2023/03/01 07:48:54;;;;;;;8.70;4.60;;;0.80;99.90;;;;;;5013813;28;20169;-83
2023/03/01 07:51:19;;;;;;;18.43;6.47;;;0.80;99.90;;;;;;5013852;28;20177;-82
2023/03/01 07:53:48;;;;;;;14.73;7.90;;;0.90;99.90;;;;;;5031253;28;20217;-83
2023/03/01 07:56:17;;;;;;;8.90;6.43;;;1.00;99.90;;;;;;5013724;28;20228;-82
2023/03/01 07:58:44;;;;;;;22.33;7.97;;;1.00;99.90;;;;;;5031559;28;20175;-82
2023/03/01 08:01:15;;;;;;;14.30;7.13;;;1.10;99.90;;;;;;5031447;28;20224;-83
2023/03/01 08:03:43;;;;;;;26.67;11.73;;;1.20;99.90;;;;;;5031486;28;20646;-83
2023/03/01 08:06:10;;;;;;;20.37;8.33;;;1.30;99.90;;;;;;5013553;28;20645;-82
2023/03/01 08:08:37;;;;;;;19.80;9.63;;;1.30;99.90;;;;;;5031430;28;20669;-83
2023/03/01 08:11:04;;;;;;;10.00;5.23;;;1.30;99.90;;;;;;5031432;28;20176;-82
2023/03/01 08:13:30;;;;;;;19.77;9.10;;;1.30;99.90;;;;;;5031302;28;20206;-82
2023/03/01 08:16:11;;;;;;;12.60;8.03;;;1.40;99.90;;;;;;5030371;28;20202;-83
2023/03/01 08:18:37;;;;;;;12.67;5.40;;;1.40;99.90;;;;;;5031082;28;20209;-82
2023/03/01 08:21:08;;;;;;;11.90;6.77;;;1.40;99.90;;;;;;5004051;28;20700;-83
2023/03/01 08:23:34;;;;;;;13.50;6.57;;;1.50;99.90;;;;;;5013772;28;20271;-82
2023/03/01 08:26:08;;;;;;;18.83;7.23;;;1.50;99.90;;;;;;5013276;28;20263;-82
2023/03/01 08:28:34;;;;;;;21.87;7.60;;;1.60;99.90;;;;;;5029170;28;20168;-82
2023/03/01 08:31:00;;;;;;;15.57;7.47;;;1.70;99.90;;;;;;5031419;28;20177;-82
2023/03/01 08:33:26;;;;;;;12.67;6.33;;;1.60;99.90;;;;;;5031379;28;20220;-83
2023/03/01 08:35:51;;;;;;;11.50;6.87;;;1.70;99.90;;;;;;5033427;28;20173;-82
2023/03/01 08:38:17;;;;;;;14.23;8.17;;;1.90;99.90;;;;;;5004038;28;20184;-82
2023/03/01 08:40:43;;;;;;;19.80;8.07;;;1.90;99.90;;;;;;5017744;28;20621;-83
2023/03/01 08:43:08;;;;;;;16.53;8.20;;;1.90;99.90;;;;;;5035613;28;20238;-83
2023/03/01 08:45:34;;;;;;;21.00;7.80;;;2.10;99.90;;;;;;5002921;28;20203;-82
2023/03/01 08:48:00;;;;;;;14.23;5.50;;;2.00;99.90;;;;;;5045328;28;20521;-83
2023/03/01 08:50:25;;;;;;;12.73;5.00;;;2.10;99.90;;;;;;5026970;28;20318;-83
2023/03/01 08:52:51;;;;;;;8.77;5.30;;;2.30;99.90;;;;;;5022830;28;20207;-83
2023/03/01 08:55:17;;;;;;;16.80;5.93;;;2.40;99.90;;;;;;5007199;28;20184;-82
2023/03/01 08:57:43;;;;;;;10.53;5.27;;;2.40;99.90;;;;;;5022781;28;20176;-83
2023/03/01 09:00:11;;;;;;;17.10;7.17;;;2.50;99.90;;;;;;5028522;28;20270;-84
2023/03/01 09:02:37;;;;;;;13.17;7.17;;;2.50;99.90;;;;;;5050078;28;20223;-83
2023/03/01 09:05:03;;;;;;;10.80;6.07;;;2.60;99.90;;;;;;5044460;28;20182;-84
2023/03/01 09:07:29;;;;;;;9.57;5.27;;;2.70;99.90;;;;;;5026856;28;20187;-84
2023/03/01 09:09:55;;;;;;;11.53;5.37;;;2.70;99.90;;;;;;5024798;28;20172;-83
2023/03/01 09:12:21;;;;;;;12.93;6.47;;;2.80;99.90;;;;;;5012152;28;20226;-84
2023/03/01 09:14:46;;;;;;;17.23;7.83;;;2.80;99.90;;;;;;5016021;28;20180;-84
2023/03/01 09:17:12;;;;;;;21.60;7.10;;;2.70;99.90;;;;;;5012486;28;20620;-84
2023/03/01 09:19:38;;;;;;;8.63;4.07;;;2.70;99.90;;;;;;5047202;28;20648;-83
2023/03/01 09:22:04;;;;;;;10.13;5.47;;;2.80;99.90;;;;;;5028762;28;20259;-84
2023/03/01 09:24:30;;;;;;;14.63;6.37;;;3.00;99.90;;;;;;4993269;28;20165;-83
2023/03/01 09:26:56;;;;;;;11.07;4.27;;;3.10;99.90;;;;;;5000262;28;20175;-83
2023/03/01 09:29:23;;;;;;;6.37;3.67;;;3.20;99.90;;;;;;5039322;28;20229;-83
2023/03/01 09:31:48;;;;;;;16.63;6.43;;;3.30;99.90;;;;;;5026168;28;20275;-84
2023/03/01 09:34:22;;;;;;;6.23;4.23;;;3.20;99.90;;;;;;5011510;28;20283;-84
2023/03/01 09:36:48;;;;;;;14.53;6.77;;;3.20;99.90;;;;;;5028240;28;20764;-83
2023/03/01 09:39:14;;;;;;;9.33;4.73;;;3.40;99.90;;;;;;5024808;28;20172;-85
2023/03/01 09:41:56;;;;;;;9.67;4.93;;;3.40;99.90;;;;;;5028155;28;20208;-83
2023/03/01 09:44:43;;;;;;;14.13;5.80;;;3.40;99.50;;;;;;5025175;28;20586;-83
2023/03/01 09:47:16;;;;;;;5.57;4.50;;;3.60;99.20;;;;;;5030495;28;20180;-84
2023/03/01 09:49:48;;;;;;;19.60;8.70;;;3.60;97.40;;;;;;5046652;28;20172;-84
2023/03/01 09:52:39;;;;;;;15.67;5.27;;;3.50;97.20;;;;;;5024926;28;20277;-82
2023/03/01 09:55:14;;;;;;;9.73;4.97;;;3.50;97.60;;;;;;5026805;28;20215;-87
2023/03/01 09:58:04;;;;;;;13.07;6.20;;;3.70;97.80;;;;;;5042780;28;20241;-84
2023/03/01 10:00:47;;;;;;;11.30;5.43;;;3.80;96.60;;;;;;5019026;28;20245;-84
2023/03/01 10:03:38;;;;;;;14.63;6.53;;;3.90;93.50;;;;;;5022764;28;20199;-83
2023/03/01 10:06:15;;;;;;;7.70;5.27;;;4.00;93.50;;;;;;5041531;28;20304;-82
2023/03/01 10:08:56;;;;;;;15.07;7.43;;;4.00;93.00;;;;;;5026381;28;20244;-85
2023/03/01 10:11:32;;;;;;;10.63;6.33;;;4.10;93.40;;;;;;5042546;28;20200;-83
2023/03/01 10:14:01;;;;;;;22.77;6.77;;;4.20;93.80;;;;;;5043327;28;20284;-83
2023/03/01 10:16:33;;;;;;;12.80;4.37;;;4.30;90.90;;;;;;5033394;28;20176;-82
2023/03/01 10:19:03;;;;;;;14.37;6.57;;;4.30;90.00;;;;;;5013283;28;20673;-83
2023/03/01 10:21:31;;;;;;;15.63;5.77;;;4.20;90.50;;;;;;5033119;28;20186;-86
2023/03/01 10:24:09;;;;;;;13.13;6.20;;;4.20;90.00;;;;;;4999698;28;20184;-84
2023/03/01 10:26:40;;;;;;;10.87;5.60;;;4.10;90.50;;;;;;5015639;28;20196;-84
2023/03/01 10:29:10;;;;;;;4.43;3.60;;;4.20;90.10;;;;;;5033636;28;20633;-83
2023/03/01 10:31:46;;;;;;;12.67;5.70;;;4.20;91.10;;;;;;5033294;28;20266;-84
2023/03/01 10:34:18;;;;;;;13.10;6.77;;;4.50;91.10;;;;;;5015833;28;20216;-84
2023/03/01 10:36:48;;;;;;;17.40;5.77;;;4.70;92.00;;;;;;5033348;28;20191;-84
2023/03/01 10:39:25;;;;;;;10.07;5.10;;;4.80;91.10;;;;;;5015033;28;20617;-84
2023/03/01 10:42:18;;;;;;;14.03;5.87;;;4.90;91.10;;;;;;5031952;28;20180;-83
2023/03/01 10:44:48;;;;;;;12.73;5.63;;;4.90;90.90;;;;;;5013146;28;20173;-84
2023/03/01 10:47:27;;;;;;;13.03;5.47;;;5.00;90.50;;;;;;4998846;28;20193;-83
2023/03/01 10:50:05;;;;;;;11.20;5.53;;;5.00;90.50;;;;;;5032883;28;20207;-83
2023/03/01 10:52:41;;;;;;;11.10;5.33;;;4.90;90.90;;;;;;5031186;28;20685;-83
2023/03/01 10:55:15;;;;;;;12.13;4.90;;;5.10;90.70;;;;;;5030905;28;20214;-82
2023/03/01 10:57:42;;;;;;;9.37;5.40;;;5.20;90.10;;;;;;5029866;28;20587;-83
2023/03/01 11:00:26;;;;;;;14.60;6.87;;;5.30;90.50;;;;;;5015548;28;20227;-84
2023/03/01 11:03:12;;;;;;;14.20;4.57;;;5.30;90.10;;;;;;5013265;28;20211;-83
2023/03/01 11:05:54;;;;;;;15.20;4.50;;;5.30;90.30;;;;;;5031987;28;20296;-84
2023/03/01 11:08:38;;;;;;;13.23;5.63;;;5.50;90.30;;;;;;5032247;28;20251;-82
2023/03/01 11:11:17;;;;;;;14.73;6.07;;;5.60;88.30;;;;;;5029988;28;20176;-83
2023/03/01 11:13:57;;;;;;;15.07;6.40;;;5.60;86.30;;;;;;5030102;28;20714;-83
2023/03/01 11:16:47;;;;;;;20.10;6.73;;;5.50;87.90;;;;;;5030250;28;20212;-83
2023/03/01 11:19:12;;;;;;;11.60;5.23;;;5.50;86.40;;;;;;5014644;28;20521;-84
2023/03/01 11:21:51;;;;;;;17.60;7.37;;;5.50;84.80;;;;;;5014903;28;20637;-84
2023/03/01 11:24:18;;;;;;;14.23;5.40;;;5.60;86.10;;;;;;5015080;28;20210;-83
2023/03/01 11:26:51;;;;;;;12.53;5.70;;;5.70;85.10;;;;;;5015521;28;20179;-84
2023/03/01 11:29:35;;;;;;;13.63;7.23;;;5.80;83.30;;;;;;5032974;28;20183;-83
2023/03/01 11:32:04;;;;;;;11.90;4.13;;;5.80;83.10;;;;;;5032758;28;20179;-83
2023/03/01 11:34:51;;;;;;;10.57;4.97;;;5.90;82.80;;;;;;5032401;28;20180;-83
2023/03/01 11:37:39;;;;;;;15.47;6.57;;;6.10;81.30;;;;;;5032612;28;20246;-84
2023/03/01 11:40:17;;;;;;;20.40;6.07;;;6.00;81.90;;;;;;5014962;28;20185;-82
2023/03/01 11:43:20;;;;;;;8.73;4.13;;;6.10;81.90;;;;;;5032519;28;20182;-83
2023/03/01 11:46:15;;;;;;;7.07;3.13;;;6.00;80.80;;;;;;5032518;28;20172;-83
2023/03/01 11:49:04;;;;;;;6.13;3.63;;;6.00;81.10;;;;;;5018945;28;20200;-83
2023/03/01 11:52:20;;;;;;;11.50;4.30;;;6.00;79.80;;;;;;5036056;28;20279;-83
2023/03/01 11:55:36;;;;;;;13.07;5.07;;;6.30;80.90;;;;;;5022889;28;20223;-82
2023/03/01 11:58:20;;;;;;;12.83;5.60;;;6.20;81.60;;;;;;5037778;28;20176;-82
2023/03/01 12:00:58;;;;;;;11.73;5.23;;;5.70;82.50;;;;;;5014538;28;20224;-83
2023/03/01 12:03:50;;;;;;;12.57;5.27;;;6.10;84.30;;;;;;5032046;28;20262;-83
2023/03/01 12:06:49;;;;;;;7.87;4.43;;;6.30;82.50;;;;;;5031531;28;20184;-83
2023/03/01 12:09:24;;;;;;;11.80;5.57;;;6.40;82.20;;;;;;5014571;28;20182;-83
2023/03/01 12:12:02;;;;;;;9.30;3.77;;;6.20;80.90;;;;;;5032276;28;20247;-84
2023/03/01 12:14:49;;;;;;;9.40;4.87;;;6.30;82.70;;;;;;5032601;28;20208;-84
2023/03/01 12:17:49;;;;;;;10.53;4.57;;;6.30;82.30;;;;;;5039525;28;20598;-83
2023/03/01 12:20:27;;;;;;;9.50;5.23;;;6.50;81.60;;;;;;5004676;28;20208;-83
2023/03/01 12:23:02;;;;;;;13.77;5.30;;;6.70;81.90;;;;;;5021198;28;20267;-84
2023/03/01 12:25:50;;;;;;;15.53;6.30;;;6.60;81.00;;;;;;5020760;28;20225;-83
2023/03/01 12:29:01;;;;;;;10.40;4.07;;;6.30;82.50;;;;;;5039039;28;20663;-83
2023/03/01 12:31:59;;;;;;;14.17;5.23;;;6.30;84.10;;;;;;5021236;28;20172;-84
2023/03/01 12:34:28;;;;;;;9.87;5.27;;;6.50;84.00;;;;;;5018035;28;20216;-84
2023/03/01 12:36:59;;;;;;;12.97;5.13;;;6.60;82.30;;;;;;5038130;28;20175;-82
2023/03/01 12:39:36;;;;;;;7.73;4.53;;;6.90;82.30;;;;;;5038326;28;20175;-84
2023/03/01 12:42:19;;;;;;;12.50;4.73;;;7.00;82.20;;;;;;5036466;28;20502;-83
2023/03/01 12:45:10;;;;;;;12.63;4.97;;;7.20;80.80;;;;;;5020750;28;20617;-83
2023/03/01 12:48:19;;;;;;;13.57;5.00;;;7.10;81.60;;;;;;5021266;28;20633;-84
2023/03/01 12:50:49;;;;;;;16.00;7.13;;;7.20;81.40;;;;;;5038474;28;20255;-84
2023/03/01 12:53:24;;;;;;;17.37;7.43;;;6.80;81.80;;;;;;5043152;28;20196;-84
2023/03/01 12:55:52;;;;;;;8.80;4.90;;;6.60;83.00;;;;;;5043645;28;20169;-83
2023/03/01 12:58:46;;;;;;;13.70;4.57;;;6.80;84.30;;;;;;5039335;28;20319;-83
2023/03/01 13:01:46;;;;;;;9.80;4.97;;;6.90;85.00;;;;;;5038928;28;20228;-84
2023/03/01 13:04:32;;;;;;;12.73;5.63;;;7.40;82.60;;;;;;5038998;28;20176;-82
2023/03/01 13:07:06;;;;;;;9.87;4.63;;;7.50;83.30;;;;;;5008175;28;20184;-84